createdAt,value
2022-08-12T00:02:04.183Z,9.80
2022-08-12T00:04:53.159Z,8.45
2022-08-12T00:07:39.574Z,8.85
2022-08-12T00:10:26.210Z,9.30
2022-08-12T00:13:14.494Z,9.57
2022-08-12T00:16:03.621Z,8.15
2022-08-12T00:18:49.608Z,6.57
2022-08-12T00:21:38.250Z,5.07
2022-08-12T00:24:25.593Z,5.87
2022-08-12T00:27:12.933Z,9.27
2022-08-12T00:29:59.482Z,6.43
2022-08-12T00:32:54.659Z,9.55
2022-08-12T00:35:44.380Z,16.17
2022-08-12T00:38:31.788Z,14.13
2022-08-12T00:41:19.755Z,9.23
2022-08-12T00:43:48.892Z,12.07
2022-08-12T00:46:31.187Z,7.50
2022-08-12T00:49:01.939Z,6.40
2022-08-12T00:51:48.705Z,12.27
2022-08-12T00:54:19.434Z,9.87
2022-08-12T00:56:49.944Z,11.33
2022-08-12T00:59:17.912Z,11.80
2022-08-12T01:02:10.223Z,10.57
2022-08-12T01:04:57.900Z,8.10
2022-08-12T01:07:45.687Z,7.13
2022-08-12T01:10:33.361Z,12.87
2022-08-12T01:13:07.735Z,10.47
2022-08-12T01:15:50.087Z,10.33
2022-08-12T01:18:22.466Z,9.87
2022-08-12T01:21:04.222Z,7.00
2022-08-12T01:23:56.250Z,9.03
2022-08-12T01:26:25.501Z,10.20
2022-08-12T01:28:59.042Z,7.93
2022-08-12T01:31:29.498Z,8.33
2022-08-12T01:34:35.292Z,10.87
2022-08-12T01:37:00.964Z,10.33
2022-08-12T01:40:32.028Z,10.50
2022-08-12T01:42:50.835Z,6.67
2022-08-12T01:45:24.887Z,9.13
2022-08-12T01:48:08.579Z,12.20
2022-08-12T01:50:37.486Z,8.63
2022-08-12T01:53:10.772Z,8.60
2022-08-12T01:55:44.680Z,10.77
2022-08-12T01:58:52.267Z,11.50
2022-08-12T02:01:23.644Z,13.50
2022-08-12T02:04:34.335Z,10.37
2022-08-12T02:07:35.268Z,11.40
2022-08-12T02:10:50.970Z,12.03
2022-08-12T02:13:48.967Z,24.03
2022-08-12T02:16:28.164Z,34.63
2022-08-12T02:19:29.174Z,19.97
2022-08-12T02:22:21.525Z,17.13
2022-08-12T02:24:51.082Z,9.47
2022-08-12T02:27:21.774Z,6.07
2022-08-12T02:29:49.851Z,9.03
2022-08-12T02:32:17.477Z,34.13
2022-08-12T02:34:45.295Z,27.07
2022-08-12T02:37:15.684Z,11.53
2022-08-12T02:39:48.735Z,11.43
2022-08-12T02:42:20.776Z,10.17
2022-08-12T02:44:51.760Z,11.97
2022-08-12T02:48:00.322Z,10.53
2022-08-12T02:50:11.482Z,9.63
2022-08-12T02:52:40.532Z,11.07
2022-08-12T02:55:28.535Z,7.33
2022-08-12T02:58:08.939Z,8.90
2022-08-12T03:00:40.740Z,10.73
2022-08-12T03:03:11.353Z,39.20
2022-08-12T03:05:49.319Z,17.53
2022-08-12T03:08:32.601Z,9.37
2022-08-12T03:11:14.414Z,13.97
2022-08-12T03:13:47.296Z,11.67
2022-08-12T03:16:15.059Z,8.83
2022-08-12T03:18:46.026Z,13.23
2022-08-12T03:21:55.714Z,7.60
2022-08-12T03:24:07.220Z,9.70
2022-08-12T03:26:36.436Z,14.67
2022-08-12T03:29:07.827Z,11.03
2022-08-12T03:31:35.438Z,9.03
2022-08-12T03:34:09.723Z,10.17
2022-08-12T03:36:39.867Z,8.30
2022-08-12T03:39:17.634Z,9.43
2022-08-12T03:41:54.990Z,19.13
2022-08-12T03:44:50.642Z,19.47
2022-08-12T03:47:57.455Z,13.60
2022-08-12T03:50:44.831Z,7.93
2022-08-12T03:53:30.924Z,12.93
2022-08-12T03:56:16.826Z,15.93
2022-08-12T03:59:03.595Z,12.50
2022-08-12T04:01:31.579Z,16.53
2022-08-12T04:04:10.761Z,61.67
2022-08-12T04:06:47.403Z,94.70
2022-08-12T04:09:19.143Z,106.90
2022-08-12T04:12:05.034Z,116.47
2022-08-12T04:14:34.063Z,124.07
2022-08-12T04:17:02.562Z,122.73
2022-08-12T04:19:29.785Z,80.43
2022-08-12T04:22:02.735Z,43.97
2022-08-12T04:24:36.288Z,33.63
2022-08-12T04:27:09.032Z,29.53
2022-08-12T04:30:31.589Z,21.10
2022-08-12T04:32:28.895Z,17.80
2022-08-12T04:34:56.638Z,15.97
2022-08-12T04:37:24.031Z,16.63
2022-08-12T04:39:52.729Z,23.37
2022-08-12T04:42:20.976Z,40.63
2022-08-12T04:44:48.786Z,35.27
2022-08-12T04:47:17.178Z,29.73
2022-08-12T04:49:51.536Z,33.00
2022-08-12T04:52:20.335Z,39.03
2022-08-12T04:55:00.649Z,31.00
2022-08-12T04:57:32.871Z,30.30
2022-08-12T05:00:00.192Z,31.43
2022-08-12T05:02:27.809Z,22.50
2022-08-12T05:05:00.479Z,31.13
2022-08-12T05:07:28.287Z,26.93
2022-08-12T05:10:00.884Z,24.03
2022-08-12T05:12:41.503Z,24.67
2022-08-12T05:15:18.975Z,25.67
2022-08-12T05:17:56.265Z,38.93
2022-08-12T05:20:27.615Z,33.47
2022-08-12T05:23:12.629Z,34.17
2022-08-12T05:25:46.928Z,33.70
2022-08-12T05:28:16.342Z,27.70
2022-08-12T05:30:45.629Z,34.80
2022-08-12T05:33:15.865Z,37.85
2022-08-12T05:35:50.702Z,31.23
2022-08-12T05:38:40.704Z,36.95
2022-08-12T05:41:19.477Z,35.20
2022-08-12T05:44:10.356Z,21.48
2022-08-12T05:46:38.220Z,33.63
2022-08-12T05:49:06.763Z,23.27
2022-08-12T05:51:39.789Z,13.10
2022-08-12T05:54:12.261Z,11.95
2022-08-12T05:56:41.534Z,9.75
2022-08-12T05:59:13.566Z,22.08
2022-08-12T06:02:11.378Z,7.80
2022-08-12T06:04:33.158Z,7.57
2022-08-12T06:07:47.177Z,8.63
2022-08-12T06:09:52.798Z,14.13
2022-08-12T06:12:25.977Z,8.13
2022-08-12T06:14:55.848Z,10.07
2022-08-12T06:17:23.278Z,5.93
2022-08-12T06:20:25.830Z,5.53
2022-08-12T06:22:40.184Z,9.50
2022-08-12T06:25:07.972Z,10.88
2022-08-12T06:28:07.875Z,31.52
2022-08-12T06:30:39.184Z,10.40
2022-08-12T06:33:21.526Z,10.02
2022-08-12T06:35:51.821Z,9.45
2022-08-12T06:38:21.243Z,14.98
2022-08-12T06:41:11.386Z,8.75
2022-08-12T06:44:06.497Z,5.18
2022-08-12T06:46:28.885Z,4.65
2022-08-12T06:48:59.503Z,6.55
2022-08-12T06:51:29.893Z,6.95
2022-08-12T06:53:59.773Z,4.80
2022-08-12T06:56:59.549Z,12.57
2022-08-12T06:59:15.883Z,4.57
2022-08-12T07:01:51.145Z,7.38
2022-08-12T07:04:38.004Z,6.13
2022-08-12T07:07:10.746Z,4.53
2022-08-12T07:10:04.087Z,26.63
2022-08-12T07:12:28.810Z,16.27
2022-08-12T07:14:58.330Z,21.45
2022-08-12T07:17:36.571Z,7.38
2022-08-12T07:20:29.945Z,6.93
2022-08-12T07:22:59.591Z,4.47
2022-08-12T07:25:37.599Z,7.45
2022-08-12T07:28:17.361Z,4.47
2022-08-12T07:30:49.673Z,9.65
2022-08-12T07:33:22.567Z,4.22
2022-08-12T07:35:53.243Z,4.57
2022-08-12T07:38:30.811Z,5.47
2022-08-12T07:41:15.803Z,6.85
2022-08-12T07:43:47.817Z,9.65
2022-08-12T07:46:21.492Z,4.55
2022-08-12T07:48:52.161Z,10.30
2022-08-12T07:51:25.132Z,11.70
2022-08-12T07:54:00.718Z,36.97
2022-08-12T07:56:31.527Z,9.07
2022-08-12T07:59:01.351Z,10.50
2022-08-12T08:01:29.912Z,23.13
2022-08-12T08:04:18.963Z,8.23
2022-08-12T08:06:49.222Z,3.33
2022-08-12T08:09:21.452Z,3.78
2022-08-12T08:12:08.169Z,5.10
2022-08-12T08:14:35.769Z,3.90
2022-08-12T08:17:06.823Z,4.13
2022-08-12T08:20:02.044Z,35.13
2022-08-12T08:22:25.745Z,9.60
2022-08-12T08:25:20.413Z,11.30
2022-08-12T08:28:10.554Z,5.63
2022-08-12T08:30:44.321Z,3.00
2022-08-12T08:33:23.253Z,8.60
2022-08-12T08:35:54.346Z,4.05
2022-08-12T08:38:33.200Z,6.82
2022-08-12T08:42:16.428Z,13.63
2022-08-12T08:44:11.981Z,140.60
2022-08-12T08:46:44.759Z,4.40
2022-08-12T08:49:13.764Z,2.75
2022-08-12T08:51:41.473Z,3.13
2022-08-12T08:54:12.321Z,5.85
2022-08-12T08:56:50.364Z,5.05
2022-08-12T08:59:23.424Z,4.40
2022-08-12T09:01:51.267Z,2.42
2022-08-12T09:05:11.315Z,3.90
2022-08-12T09:07:17.261Z,1.60
2022-08-12T09:10:02.096Z,7.00
2022-08-12T09:12:54.971Z,6.28
2022-08-12T09:15:34.938Z,4.78
2022-08-12T09:18:08.416Z,7.32
2022-08-12T09:20:37.101Z,0.88
2022-08-12T09:23:08.010Z,1.60
2022-08-12T09:25:53.656Z,7.93
2022-08-12T09:28:31.287Z,4.25
2022-08-12T09:31:00.330Z,1.42
2022-08-12T09:34:29.084Z,8.20
2022-08-12T09:36:30.909Z,1.75
2022-08-12T09:40:05.115Z,3.42
2022-08-12T09:42:38.835Z,4.82
2022-08-12T09:46:05.194Z,3.05
2022-08-12T09:48:20.278Z,1.88
2022-08-12T09:50:51.630Z,5.60
2022-08-12T09:54:33.626Z,3.38
2022-08-12T09:56:59.108Z,3.75
2022-08-12T09:59:10.105Z,4.20
2022-08-12T10:02:45.959Z,5.07
2022-08-12T10:04:26.755Z,4.40
2022-08-12T10:06:59.183Z,18.13
2022-08-12T10:09:58.139Z,8.85
2022-08-12T10:12:36.741Z,8.90
2022-08-12T10:15:05.412Z,3.92
2022-08-12T10:17:35.037Z,8.65
2022-08-12T10:20:22.274Z,5.03
2022-08-12T10:22:58.498Z,7.28
2022-08-12T10:26:34.651Z,4.95
2022-08-12T10:29:01.800Z,3.03
2022-08-12T10:31:47.137Z,3.85
2022-08-12T10:34:26.278Z,4.80
2022-08-12T10:37:10.502Z,2.97
2022-08-12T10:40:00.731Z,2.40
2022-08-12T10:43:00.628Z,9.63
2022-08-12T10:45:29.037Z,6.03
2022-08-12T10:48:07.833Z,4.63
2022-08-12T10:51:01.917Z,3.03
2022-08-12T10:53:44.164Z,8.95
2022-08-12T10:56:16.503Z,13.57
2022-08-12T10:58:46.964Z,5.38
2022-08-12T11:01:49.140Z,8.05
2022-08-12T11:04:23.370Z,2.83
2022-08-12T11:07:07.811Z,4.70
2022-08-12T11:10:00.625Z,2.17
2022-08-12T11:12:55.162Z,3.63
2022-08-12T11:15:32.984Z,8.02
2022-08-12T11:18:18.625Z,10.95
2022-08-12T11:20:52.309Z,1.98
2022-08-12T11:23:36.944Z,7.75
2022-08-12T11:26:07.667Z,6.22
2022-08-12T11:28:38.752Z,3.72
2022-08-12T11:31:12.088Z,7.47
2022-08-12T11:34:05.785Z,2.30
2022-08-12T11:36:40.765Z,9.95
2022-08-12T11:39:12.631Z,4.72
2022-08-12T11:41:43.545Z,7.00
2022-08-12T11:44:36.591Z,17.98
2022-08-12T11:47:09.636Z,4.72
2022-08-12T11:49:52.031Z,4.25
2022-08-12T11:52:36.656Z,3.65
2022-08-12T11:55:46.749Z,5.15
2022-08-12T12:02:00.731Z,3.72
2022-08-12T12:04:29.648Z,7.30
2022-08-12T12:07:07.158Z,3.30
2022-08-12T12:09:52.434Z,7.40
2022-08-12T12:12:25.179Z,5.05
2022-08-12T12:14:57.300Z,5.68
2022-08-12T12:17:38.182Z,9.25
2022-08-12T12:20:13.018Z,11.38
2022-08-12T12:22:50.069Z,15.90
2022-08-12T12:25:21.602Z,5.47
2022-08-12T12:28:36.552Z,2.85
2022-08-12T12:32:11.722Z,2.35
2022-08-12T12:35:13.149Z,5.80
2022-08-12T12:38:05.527Z,1.52
2022-08-12T12:40:50.590Z,9.35
2022-08-12T12:43:29.168Z,2.15
2022-08-12T12:46:13.607Z,7.63
2022-08-12T12:48:44.329Z,10.45
2022-08-12T12:51:49.276Z,4.82
2022-08-12T12:54:22.330Z,3.88
2022-08-12T12:56:54.705Z,6.25
2022-08-12T12:59:54.529Z,4.88
2022-08-12T13:02:31.333Z,5.72
2022-08-12T13:05:02.500Z,7.68
2022-08-12T13:07:49.260Z,23.05
2022-08-12T13:14:09.250Z,3.72
2022-08-12T13:16:18.609Z,3.22
2022-08-12T13:18:50.415Z,3.88
2022-08-12T13:21:33.189Z,9.80
2022-08-12T13:24:10.807Z,18.80
2022-08-12T13:26:41.901Z,6.72
2022-08-12T13:29:22.865Z,7.47
2022-08-12T13:32:19.616Z,9.38
2022-08-12T13:34:53.447Z,10.43
2022-08-12T13:37:54.942Z,3.95
2022-08-12T13:40:40.276Z,22.23
2022-08-12T13:43:15.940Z,11.40
2022-08-12T13:46:03.893Z,7.43
2022-08-12T13:48:31.966Z,8.55
2022-08-12T13:51:00.061Z,10.88
2022-08-12T13:53:55.562Z,8.98
2022-08-12T13:56:24.369Z,3.80
2022-08-12T13:58:56.306Z,3.22
2022-08-12T14:01:28.651Z,2.30
2022-08-12T14:04:01.124Z,3.22
2022-08-12T14:06:32.147Z,14.45
2022-08-12T14:09:00.294Z,29.88
2022-08-12T14:11:59.091Z,4.18
2022-08-12T14:14:31.776Z,4.35
2022-08-12T14:17:10.751Z,6.63
2022-08-12T14:20:00.707Z,6.18
2022-08-12T14:22:30.239Z,3.63
2022-08-12T14:25:00.481Z,5.93
2022-08-12T14:28:04.661Z,4.05
2022-08-12T14:30:29.514Z,2.33
2022-08-12T14:33:02.877Z,3.35
2022-08-12T14:35:41.375Z,9.52
2022-08-12T14:38:39.597Z,2.53
2022-08-12T14:41:10.308Z,5.82
2022-08-12T14:43:58.939Z,9.20
2022-08-12T14:46:27.931Z,10.27
2022-08-12T14:48:56.842Z,6.15
2022-08-12T14:52:54.965Z,13.75
2022-08-12T14:57:20.765Z,9.05
2022-08-12T15:00:11.112Z,6.05
2022-08-12T15:02:45.734Z,3.92
2022-08-12T15:06:05.760Z,5.00
2022-08-12T15:08:04.871Z,4.75
2022-08-12T15:10:49.928Z,4.15
2022-08-12T15:13:26.767Z,27.75
2022-08-12T15:15:57.839Z,8.52
2022-08-12T15:18:33.326Z,11.80
2022-08-12T15:21:06.997Z,5.40
2022-08-12T15:23:54.898Z,4.38
2022-08-12T15:26:27.364Z,10.90
2022-08-12T15:28:59.255Z,16.45
2022-08-12T15:31:28.234Z,7.55
2022-08-12T15:34:16.668Z,11.73
2022-08-12T15:36:54.837Z,6.93
2022-08-12T15:39:23.923Z,7.13
2022-08-12T15:41:55.733Z,8.70
2022-08-12T15:44:42.302Z,6.70
2022-08-12T15:47:11.225Z,10.80
2022-08-12T15:49:54.473Z,7.43
2022-08-12T15:52:27.941Z,8.73
2022-08-12T15:54:58.707Z,10.40
2022-08-12T16:02:10.199Z,30.63
2022-08-12T16:04:39.046Z,33.65
2022-08-12T16:07:09.250Z,11.75
2022-08-12T16:09:56.379Z,20.08
2022-08-12T16:12:26.242Z,15.75
2022-08-12T16:20:02.849Z,15.52
2022-08-12T16:22:14.612Z,14.52
2022-08-12T16:24:44.837Z,8.10
2022-08-12T16:27:12.122Z,13.65
2022-08-12T16:29:53.001Z,5.35
2022-08-12T16:32:24.602Z,5.75
2022-08-12T16:34:59.810Z,8.48
2022-08-12T16:38:24.882Z,7.22
2022-08-12T16:40:21.945Z,10.18
2022-08-12T16:42:53.354Z,7.63
2022-08-12T16:46:04.363Z,8.25
2022-08-12T16:48:34.686Z,5.38
2022-08-12T16:51:10.098Z,9.05
2022-08-12T16:53:44.205Z,6.85
2022-08-12T16:56:17.142Z,9.75
2022-08-12T16:58:47.390Z,19.92
2022-08-12T17:01:15.871Z,15.57
2022-08-12T17:03:46.939Z,17.23
2022-08-12T17:06:27.638Z,10.57
2022-08-12T17:09:03.063Z,11.00
2022-08-12T17:11:55.946Z,10.10
2022-08-12T17:14:24.723Z,11.18
2022-08-12T17:16:56.013Z,10.48
2022-08-12T17:20:29.263Z,11.15
2022-08-12T17:22:21.623Z,8.20
2022-08-12T17:24:55.479Z,88.63
2022-08-12T17:27:31.115Z,13.73
2022-08-12T17:30:05.250Z,11.13
2022-08-12T17:32:37.096Z,11.00
2022-08-12T17:35:23.558Z,12.50
2022-08-12T17:38:02.585Z,15.43
2022-08-12T17:40:36.342Z,9.32
2022-08-12T17:43:57.933Z,64.40
2022-08-12T17:45:58.796Z,35.95
2022-08-12T17:48:34.445Z,31.85
2022-08-12T17:51:24.383Z,19.70
2022-08-12T17:54:11.085Z,23.42
2022-08-12T17:56:43.117Z,24.00
2022-08-12T17:59:13.093Z,14.40
2022-08-12T18:01:46.432Z,17.63
2022-08-12T18:04:22.840Z,15.00
2022-08-12T18:07:02.725Z,12.85
2022-08-12T18:09:36.667Z,11.15
2022-08-12T18:12:24.239Z,17.73
2022-08-12T18:14:58.465Z,15.55
2022-08-12T18:17:31.323Z,12.68
2022-08-12T18:20:05.421Z,18.40
2022-08-12T18:22:36.780Z,19.98
2022-08-12T18:26:12.380Z,18.65
2022-08-12T18:28:16.152Z,13.15
2022-08-12T18:30:52.326Z,13.00
2022-08-12T18:33:26.011Z,15.45
2022-08-12T18:35:57.020Z,30.55
2022-08-12T18:38:27.319Z,57.25
2022-08-12T18:41:20.863Z,166.75
2022-08-12T18:44:00.713Z,95.35
2022-08-12T18:46:38.065Z,30.75
2022-08-12T18:49:17.762Z,34.70
2022-08-12T18:51:55.073Z,17.15
2022-08-12T18:54:26.971Z,29.70
2022-08-12T18:56:59.376Z,38.10
2022-08-12T19:00:01.958Z,45.45
2022-08-12T19:02:21.749Z,20.00
2022-08-12T19:04:53.822Z,33.83
2022-08-12T19:07:24.569Z,23.45
2022-08-12T19:09:58.344Z,27.70
2022-08-12T19:12:56.844Z,27.20
2022-08-12T19:15:30.131Z,27.10
2022-08-12T19:18:03.487Z,64.07
2022-08-12T19:20:34.059Z,44.45
2022-08-12T19:23:08.309Z,41.15
2022-08-12T19:26:01.605Z,154.23
2022-08-12T19:28:36.184Z,126.68
2022-08-12T19:31:57.153Z,82.97
2022-08-12T19:38:02.867Z,22.10
2022-08-12T19:40:20.521Z,17.23
2022-08-12T19:43:13.449Z,17.50
2022-08-12T19:45:51.600Z,14.57
2022-08-12T19:48:22.008Z,14.05
2022-08-12T19:50:53.171Z,11.13
2022-08-12T19:53:27.477Z,15.25
2022-08-12T19:55:57.585Z,16.02
2022-08-12T19:58:26.839Z,9.40
2022-08-12T20:00:55.734Z,14.82
2022-08-12T20:03:39.246Z,9.25
2022-08-12T20:06:15.493Z,10.65
2022-08-12T20:08:56.157Z,5.88
2022-08-12T20:12:11.831Z,8.43
2022-08-12T20:14:17.998Z,10.85
2022-08-12T20:16:52.529Z,7.18
2022-08-12T20:19:28.642Z,16.05
2022-08-12T20:22:24.335Z,9.15
2022-08-12T20:25:01.652Z,53.17
2022-08-12T20:28:05.005Z,18.17
2022-08-12T20:30:37.476Z,8.90
2022-08-12T20:33:18.878Z,12.57
2022-08-12T20:36:06.612Z,9.02
2022-08-12T20:38:46.053Z,7.78
2022-08-12T20:41:17.468Z,8.15
2022-08-12T20:43:49.918Z,8.98
2022-08-12T20:46:24.646Z,10.35
2022-08-12T20:48:57.651Z,5.40
2022-08-12T20:51:40.454Z,3.78
2022-08-12T20:54:16.746Z,4.95
2022-08-12T20:56:46.109Z,8.02
2022-08-12T20:59:20.069Z,7.40
2022-08-12T21:01:53.981Z,48.00
2022-08-12T21:04:43.648Z,76.63
2022-08-12T21:07:14.464Z,68.85
2022-08-12T21:09:47.604Z,23.05
2022-08-12T21:12:31.733Z,10.43
2022-08-12T21:15:22.858Z,11.38
2022-08-12T21:18:11.047Z,5.30
2022-08-12T21:20:54.333Z,11.13
2022-08-12T21:23:23.253Z,9.80
2022-08-12T21:26:01.532Z,13.45
2022-08-12T21:28:32.010Z,7.03
2022-08-12T21:32:34.351Z,12.70
2022-08-12T21:34:07.687Z,6.65
2022-08-12T21:36:43.358Z,13.85
2022-08-12T21:39:21.395Z,7.10
2022-08-12T21:41:52.652Z,7.70
2022-08-12T21:45:44.491Z,9.68
2022-08-12T21:47:21.332Z,12.23
2022-08-12T21:50:06.842Z,8.38
2022-08-12T21:52:37.337Z,8.23
2022-08-12T21:55:18.958Z,8.73
2022-08-12T21:57:53.136Z,9.63
2022-08-12T22:00:31.913Z,8.38
2022-08-12T22:04:03.524Z,6.88
2022-08-12T22:06:31.847Z,7.78
2022-08-12T22:09:17.685Z,7.35
2022-08-12T22:11:56.284Z,11.70
2022-08-12T22:14:30.540Z,11.98
2022-08-12T22:17:20.173Z,6.38
2022-08-12T22:19:49.800Z,15.00
2022-08-12T22:22:18.789Z,6.15
2022-08-12T22:24:47.733Z,16.08
2022-08-12T22:27:31.614Z,10.18
2022-08-12T22:30:19.624Z,19.25
2022-08-12T22:32:50.231Z,14.13
2022-08-12T22:35:55.679Z,22.38
2022-08-12T22:38:25.028Z,12.00
2022-08-12T22:40:55.923Z,14.07
2022-08-12T22:43:58.764Z,7.70
2022-08-12T22:46:52.888Z,15.75
2022-08-12T22:49:36.301Z,11.40
2022-08-12T22:52:11.476Z,8.20
2022-08-12T22:54:46.288Z,10.80
2022-08-12T22:57:54.088Z,8.82
2022-08-12T23:00:24.120Z,7.28
2022-08-12T23:03:00.820Z,13.55
2022-08-12T23:05:56.549Z,8.90
2022-08-12T23:08:23.998Z,17.52
2022-08-12T23:10:59.204Z,11.90
2022-08-12T23:13:45.957Z,14.05
2022-08-12T23:16:28.465Z,12.93
2022-08-12T23:19:10.061Z,8.85
2022-08-12T23:22:04.262Z,14.45
2022-08-12T23:24:35.947Z,17.33
2022-08-12T23:27:22.483Z,8.32
2022-08-12T23:29:59.509Z,8.38
2022-08-12T23:32:37.456Z,46.63
2022-08-12T23:35:07.078Z,8.30
2022-08-12T23:37:46.498Z,11.02
2022-08-12T23:40:18.247Z,6.68
2022-08-12T23:42:48.890Z,14.82
2022-08-12T23:45:20.451Z,8.63
2022-08-12T23:47:58.932Z,13.45
2022-08-12T23:50:34.417Z,15.05
2022-08-12T23:53:22.406Z,8.43
2022-08-12T23:55:50.684Z,8.60
2022-08-12T23:58:25.899Z,6.22
